createdAt,value
2018-07-08T00:00:27.750Z,56.33
2018-07-08T00:02:54.889Z,34.50
2018-07-08T00:05:22.041Z,57.53
2018-07-08T00:07:49.165Z,50.30
2018-07-08T00:10:16.315Z,32.50
2018-07-08T00:12:43.473Z,56.07
2018-07-08T00:15:10.640Z,52.30
2018-07-08T00:17:37.792Z,48.47
2018-07-08T00:20:05.377Z,47.47
2018-07-08T00:22:32.520Z,59.37
2018-07-08T00:24:59.689Z,35.07
2018-07-08T00:27:26.839Z,61.83
2018-07-08T00:29:53.985Z,53.23
2018-07-08T00:32:21.136Z,60.00
2018-07-08T00:34:48.256Z,50.17
2018-07-08T00:37:15.373Z,41.03
2018-07-08T00:39:42.541Z,58.90
2018-07-08T00:42:09.693Z,38.30
2018-07-08T00:44:36.835Z,62.37
2018-07-08T00:47:04.110Z,44.80
2018-07-08T00:49:31.237Z,54.10
2018-07-08T00:51:58.381Z,81.03
2018-07-08T00:54:25.524Z,40.13
2018-07-08T00:56:52.671Z,50.77
2018-07-08T00:59:19.808Z,91.20
2018-07-08T01:01:46.980Z,53.37
2018-07-08T01:04:14.104Z,45.30
2018-07-08T01:06:41.232Z,45.50
2018-07-08T01:09:08.376Z,75.17
2018-07-08T01:11:35.516Z,71.07
2018-07-08T01:14:02.693Z,39.93
2018-07-08T01:16:29.816Z,74.20
2018-07-08T01:18:56.956Z,75.97
2018-07-08T01:21:24.097Z,55.40
2018-07-08T01:23:51.220Z,52.47
2018-07-08T01:26:18.372Z,62.20
2018-07-08T01:28:45.511Z,79.17
2018-07-08T01:31:12.673Z,75.57
2018-07-08T01:33:39.889Z,57.13
2018-07-08T01:36:07.543Z,71.40
2018-07-08T01:38:34.692Z,121.63
2018-07-08T01:41:01.812Z,61.87
2018-07-08T01:43:29.307Z,77.63
2018-07-08T01:45:56.533Z,47.17
2018-07-08T01:48:23.692Z,65.73
2018-07-08T01:50:50.828Z,82.97
2018-07-08T01:53:18.384Z,63.87
2018-07-08T01:55:45.584Z,79.00
2018-07-08T01:58:12.732Z,62.87
2018-07-08T02:00:39.914Z,64.00
2018-07-08T02:03:07.241Z,73.60
2018-07-08T02:05:34.400Z,53.23
2018-07-08T02:08:01.520Z,63.23
2018-07-08T02:10:28.672Z,56.03
2018-07-08T02:12:56.403Z,70.90
2018-07-08T02:15:23.605Z,79.67
2018-07-08T02:17:50.784Z,68.87
2018-07-08T02:20:17.932Z,79.57
2018-07-08T02:22:45.084Z,41.33
2018-07-08T02:25:12.212Z,54.40
2018-07-08T02:27:39.368Z,64.80
2018-07-08T02:30:08.435Z,44.03
2018-07-08T02:32:36.273Z,77.40
2018-07-08T02:35:03.447Z,45.93
2018-07-08T02:37:30.588Z,42.57
2018-07-08T02:39:57.739Z,57.90
2018-07-08T02:42:24.889Z,62.57
2018-07-08T02:44:52.041Z,55.90
2018-07-08T02:47:19.289Z,63.47
2018-07-08T02:49:46.885Z,73.50
2018-07-08T02:52:14.111Z,41.27
2018-07-08T02:54:41.244Z,49.77
2018-07-08T02:57:08.365Z,46.33
2018-07-08T02:59:35.504Z,35.47
2018-07-08T03:02:02.677Z,61.13
2018-07-08T03:04:29.797Z,54.23
2018-07-08T03:06:56.908Z,75.53
2018-07-08T03:09:24.039Z,48.53
2018-07-08T03:11:51.165Z,78.27
2018-07-08T03:14:18.312Z,32.63
2018-07-08T03:16:45.444Z,109.30
2018-07-08T03:19:12.564Z,35.63
2018-07-08T03:21:39.702Z,38.77
2018-07-08T03:24:06.816Z,40.30
2018-07-08T03:26:33.947Z,37.03
2018-07-08T03:29:01.077Z,43.77
2018-07-08T03:31:28.216Z,24.23
2018-07-08T03:33:55.389Z,50.67
2018-07-08T03:36:22.551Z,38.07
2018-07-08T03:38:49.723Z,31.30
2018-07-08T03:41:16.849Z,26.53
2018-07-08T03:43:43.982Z,38.80
2018-07-08T03:46:11.105Z,53.30
2018-07-08T03:48:38.580Z,29.87
2018-07-08T03:51:05.797Z,25.57
2018-07-08T03:53:32.919Z,28.87
2018-07-08T03:56:00.052Z,31.17
2018-07-08T03:58:27.212Z,49.00
2018-07-08T04:00:54.341Z,33.83
2018-07-08T04:03:21.471Z,32.73
2018-07-08T04:05:48.598Z,20.60
2018-07-08T04:08:15.768Z,55.43
2018-07-08T04:10:42.911Z,28.23
2018-07-08T04:13:10.097Z,32.30
2018-07-08T04:15:37.229Z,31.00
2018-07-08T04:18:08.287Z,23.23
2018-07-08T04:20:36.356Z,30.23
2018-07-08T04:23:03.480Z,22.37
2018-07-08T04:25:31.269Z,28.77
2018-07-08T04:27:58.390Z,38.43
2018-07-08T04:30:25.593Z,35.13
2018-07-08T04:32:52.664Z,30.67
2018-07-08T04:35:19.800Z,32.93
2018-07-08T04:37:46.907Z,44.90
2018-07-08T04:40:14.032Z,39.37
2018-07-08T04:42:41.212Z,37.30
2018-07-08T04:45:08.353Z,47.77
2018-07-08T04:47:35.476Z,27.40
2018-07-08T04:50:02.680Z,43.20
2018-07-08T04:52:29.795Z,53.63
2018-07-08T04:54:56.908Z,36.77
2018-07-08T04:57:24.052Z,40.77
2018-07-08T04:59:51.203Z,57.07
2018-07-08T05:02:18.332Z,58.33
2018-07-08T05:04:45.477Z,54.43
2018-07-08T05:07:12.631Z,67.83
2018-07-08T05:09:39.758Z,52.07
2018-07-08T05:12:06.896Z,37.73
2018-07-08T05:14:34.026Z,57.50
2018-07-08T05:17:01.186Z,47.23
2018-07-08T05:19:28.300Z,52.17
2018-07-08T05:21:55.440Z,51.63
2018-07-08T05:24:22.549Z,53.70
2018-07-08T05:26:49.675Z,85.20
2018-07-08T05:29:16.836Z,50.60
2018-07-08T05:31:43.956Z,98.53
2018-07-08T05:34:11.068Z,58.60
2018-07-08T05:36:38.188Z,152.53
2018-07-08T05:39:05.712Z,54.53
2018-07-08T05:41:32.819Z,59.87
2018-07-08T05:43:59.952Z,86.13
2018-07-08T05:46:27.088Z,97.27
2018-07-08T05:48:54.220Z,55.63
2018-07-08T05:51:21.363Z,49.70
2018-07-08T05:53:48.565Z,80.47
2018-07-08T05:56:15.673Z,103.90
2018-07-08T05:58:42.804Z,93.30
2018-07-08T06:01:10.022Z,155.60
2018-07-08T06:03:37.249Z,75.20
2018-07-08T06:06:04.392Z,117.43
2018-07-08T06:08:31.530Z,231.43
2018-07-08T06:10:58.701Z,109.13
2018-07-08T06:13:25.824Z,73.53
2018-07-08T06:15:52.960Z,105.87
2018-07-08T06:18:20.096Z,92.13
2018-07-08T06:20:47.216Z,64.77
2018-07-08T06:23:14.364Z,83.33
2018-07-08T06:25:41.492Z,99.93
2018-07-08T06:28:08.628Z,70.73
2018-07-08T06:30:35.772Z,72.80
2018-07-08T06:33:02.984Z,80.67
2018-07-08T06:35:30.116Z,70.03
2018-07-08T06:37:57.600Z,88.43
2018-07-08T06:40:24.734Z,101.23
2018-07-08T06:42:51.881Z,94.33
2018-07-08T06:45:19.360Z,50.90
2018-07-08T06:47:46.496Z,88.07
2018-07-08T06:50:13.628Z,87.43
2018-07-08T06:52:40.768Z,68.03
2018-07-08T06:55:07.903Z,73.90
2018-07-08T06:57:35.025Z,155.30
2018-07-08T07:00:02.208Z,109.43
2018-07-08T07:02:29.345Z,86.00
2018-07-08T07:04:56.484Z,101.47
2018-07-08T07:07:23.612Z,45.27
2018-07-08T07:09:50.740Z,46.67
2018-07-08T07:12:17.861Z,50.17
2018-07-08T07:14:44.984Z,62.73
2018-07-08T07:17:12.225Z,97.33
2018-07-08T07:19:39.376Z,104.07
2018-07-08T07:22:06.535Z,47.83
2018-07-08T07:24:33.647Z,90.60
2018-07-08T07:27:00.764Z,38.30
2018-07-08T07:29:27.893Z,91.20
2018-07-08T07:31:55.500Z,179.27
2018-07-08T07:34:22.604Z,50.43
2018-07-08T07:36:49.728Z,44.10
2018-07-08T07:39:16.870Z,28.43
2018-07-08T07:41:44.076Z,44.67
2018-07-08T07:44:11.212Z,43.27
2018-07-08T07:46:38.344Z,162.83
2018-07-08T07:49:05.476Z,57.83
2018-07-08T07:51:32.701Z,61.40
2018-07-08T07:54:00.181Z,114.33
2018-07-08T07:56:27.316Z,124.70
2018-07-08T07:58:54.435Z,71.83
2018-07-08T08:01:21.553Z,184.80
2018-07-08T08:03:48.672Z,60.93
2018-07-08T08:06:15.772Z,34.13
2018-07-08T08:08:42.888Z,155.90
2018-07-08T08:11:10.007Z,55.30
2018-07-08T08:13:48.347Z,270.23
2018-07-08T08:16:15.458Z,48.67
2018-07-08T08:18:42.581Z,60.93
2018-07-08T08:21:09.753Z,117.83
2018-07-08T08:23:36.843Z,49.70
2018-07-08T08:26:03.988Z,219.63
2018-07-08T08:28:31.108Z,85.00
2018-07-08T08:30:58.236Z,27.73
2018-07-08T08:33:25.453Z,149.50
2018-07-08T08:35:52.593Z,101.30
2018-07-08T08:38:19.704Z,57.63
2018-07-08T08:40:46.816Z,84.23
2018-07-08T08:43:13.937Z,101.07
2018-07-08T08:45:41.058Z,59.63
2018-07-08T08:48:08.221Z,47.03
2018-07-08T08:50:35.384Z,110.90
2018-07-08T08:53:02.528Z,201.50
2018-07-08T08:55:29.664Z,158.07
2018-07-08T08:57:56.850Z,70.17
2018-07-08T09:00:24.005Z,237.07
2018-07-08T09:02:51.119Z,100.73
2018-07-08T09:05:18.229Z,73.93
2018-07-08T09:07:45.383Z,414.07
2018-07-08T09:10:12.496Z,357.23
2018-07-08T09:12:39.628Z,204.03
2018-07-08T09:15:06.785Z,212.63
2018-07-08T09:17:33.943Z,98.93
2018-07-08T09:20:01.081Z,251.90
2018-07-08T09:22:28.192Z,426.63
2018-07-08T09:24:55.341Z,343.60
2018-07-08T09:27:22.480Z,193.63
2018-07-08T09:29:49.640Z,83.03
2018-07-08T09:32:16.765Z,116.77
2018-07-08T09:34:43.915Z,528.23
2018-07-08T09:37:11.038Z,144.07
2018-07-08T09:39:38.160Z,113.97
2018-07-08T09:42:05.339Z,136.20
2018-07-08T09:44:32.465Z,69.80
2018-07-08T09:46:59.604Z,158.30
2018-07-08T09:49:26.733Z,89.13
2018-07-08T09:51:53.919Z,52.80
2018-07-08T09:54:21.057Z,273.53
2018-07-08T09:56:48.168Z,94.10
2018-07-08T09:59:15.310Z,137.03
2018-07-08T10:01:43.372Z,386.97
2018-07-08T10:04:12.792Z,116.87
2018-07-08T10:06:40.648Z,131.87
2018-07-08T10:09:09.548Z,86.73
2018-07-08T10:11:36.988Z,240.20
2018-07-08T10:14:04.661Z,275.50
2018-07-08T10:16:31.765Z,130.40
2018-07-08T10:18:58.904Z,335.63
2018-07-08T10:21:26.063Z,401.97
2018-07-08T10:23:53.180Z,272.23
2018-07-08T10:26:20.349Z,679.10
2018-07-08T10:28:47.481Z,176.27
2018-07-08T10:31:14.647Z,409.40
2018-07-08T10:33:54.268Z,240.17
2018-07-08T10:36:21.523Z,317.67
2018-07-08T10:38:48.680Z,353.60
2018-07-08T10:41:15.824Z,400.97
2018-07-08T10:43:42.998Z,249.53
2018-07-08T10:46:10.164Z,176.57
2018-07-08T10:48:37.301Z,314.20
2018-07-08T10:51:04.483Z,565.03
2018-07-08T10:53:31.620Z,314.13
2018-07-08T10:55:58.776Z,263.67
2018-07-08T10:58:25.908Z,234.10
2018-07-08T11:00:53.053Z,112.93
2018-07-08T11:03:20.192Z,312.27
2018-07-08T11:05:47.313Z,279.73
2018-07-08T11:08:14.432Z,146.23
2018-07-08T11:10:41.556Z,70.23
2018-07-08T11:13:08.700Z,257.67
2018-07-08T11:15:35.824Z,472.83
2018-07-08T11:18:02.961Z,432.40
2018-07-08T11:20:30.116Z,401.63
2018-07-08T11:22:57.228Z,239.60
2018-07-08T11:25:24.412Z,82.03
2018-07-08T11:27:51.624Z,431.07
2018-07-08T11:30:18.764Z,108.93
2018-07-08T11:32:45.916Z,628.07
2018-07-08T11:35:13.050Z,454.63
2018-07-08T11:37:40.213Z,478.63
2018-07-08T11:40:07.312Z,428.70
2018-07-08T11:42:34.473Z,243.77
2018-07-08T11:45:01.653Z,172.57
2018-07-08T11:47:28.784Z,416.00
2018-07-08T11:49:56.016Z,441.07
2018-07-08T11:52:23.140Z,97.43
2018-07-08T11:54:50.268Z,368.03
2018-07-08T11:57:17.421Z,104.93
2018-07-08T11:59:44.542Z,633.60
2018-07-08T12:02:11.681Z,185.83
2018-07-08T12:04:38.821Z,504.23
2018-07-08T12:07:05.945Z,324.10
2018-07-08T12:09:33.080Z,305.97
2018-07-08T12:12:00.252Z,486.73
2018-07-08T12:14:27.673Z,135.40
2018-07-08T12:16:55.092Z,207.60
2018-07-08T12:19:22.220Z,300.63
2018-07-08T12:21:49.366Z,627.73
2018-07-08T12:24:16.539Z,100.50
2018-07-08T12:26:43.668Z,218.40
2018-07-08T12:29:10.840Z,277.80
2018-07-08T12:31:37.973Z,217.23
2018-07-08T12:34:05.129Z,499.57
2018-07-08T12:36:32.253Z,367.30
2018-07-08T12:38:59.384Z,139.07
2018-07-08T12:41:26.513Z,120.03
2018-07-08T12:43:53.688Z,177.70
2018-07-08T12:46:20.860Z,248.00
2018-07-08T12:48:47.988Z,657.23
2018-07-08T12:51:15.125Z,106.87
2018-07-08T12:53:42.291Z,87.73
2018-07-08T12:56:09.424Z,89.03
2018-07-08T12:58:36.566Z,258.33
2018-07-08T13:01:03.696Z,389.33
2018-07-08T13:03:30.840Z,265.83
2018-07-08T13:05:57.976Z,583.93
2018-07-08T13:08:25.108Z,522.33
2018-07-08T13:10:52.216Z,795.23
2018-07-08T13:13:19.397Z,346.97
2018-07-08T13:15:46.534Z,79.33
2018-07-08T13:18:13.716Z,341.73
2018-07-08T13:20:40.856Z,248.63
2018-07-08T13:23:07.988Z,62.87
2018-07-08T13:25:35.137Z,151.97
2018-07-08T13:28:02.272Z,11.57
2018-07-08T13:30:29.391Z,100.23
2018-07-08T13:32:56.515Z,1999.90
2018-07-08T13:35:23.645Z,1999.90
2018-07-08T13:37:50.772Z,322.97
2018-07-08T13:40:17.916Z,416.80
2018-07-08T13:42:45.069Z,365.93
2018-07-08T13:45:12.196Z,150.23
2018-07-08T13:47:39.320Z,1035.27
2018-07-08T13:50:06.496Z,553.57
2018-07-08T13:52:33.619Z,323.67
2018-07-08T13:55:00.739Z,583.53
2018-07-08T13:57:27.906Z,1441.13
2018-07-08T13:59:55.029Z,379.83
2018-07-08T14:02:22.192Z,257.20
2018-07-08T14:04:49.348Z,898.30
2018-07-08T14:07:16.481Z,671.77
2018-07-08T14:09:43.756Z,1760.53
2018-07-08T14:12:10.898Z,667.77
2018-07-08T14:14:38.057Z,293.63
2018-07-08T14:17:05.179Z,637.47
2018-07-08T14:19:32.288Z,254.80
2018-07-08T14:21:59.484Z,738.57
2018-07-08T14:24:26.592Z,1975.33
2018-07-08T14:26:53.724Z,1999.90
2018-07-08T14:29:20.874Z,1719.33
2018-07-08T14:31:48.061Z,498.83
2018-07-08T14:34:15.211Z,1073.87
2018-07-08T14:36:42.343Z,180.10
2018-07-08T14:39:10.036Z,842.63
2018-07-08T14:41:37.187Z,42.23
2018-07-08T14:44:04.352Z,3.80
2018-07-08T14:46:31.528Z,1620.93
2018-07-08T14:48:58.677Z,19.33
2018-07-08T14:51:25.788Z,8.67
2018-07-08T14:53:53.353Z,9.77
2018-07-08T14:56:20.472Z,210.37
2018-07-08T14:58:47.604Z,30.33
2018-07-08T15:01:14.729Z,13.57
2018-07-08T15:03:41.885Z,44.93
2018-07-08T15:06:09.000Z,144.73
2018-07-08T15:08:36.137Z,104.70
2018-07-08T15:11:03.272Z,43.20
2018-07-08T15:13:30.456Z,64.27
2018-07-08T15:15:57.663Z,167.20
2018-07-08T15:18:24.741Z,13.57
2018-07-08T15:20:51.880Z,202.23
2018-07-08T15:23:19.012Z,1721.20
2018-07-08T15:25:46.148Z,1999.90
2018-07-08T15:28:13.378Z,437.70
2018-07-08T15:30:40.496Z,1999.90
2018-07-08T15:33:07.612Z,282.80
2018-07-08T15:35:34.764Z,283.83
2018-07-08T15:38:01.900Z,31.93
2018-07-08T15:40:29.057Z,5.70
2018-07-08T15:42:56.173Z,373.13
2018-07-08T15:45:23.300Z,638.03
2018-07-08T15:47:50.436Z,1999.90
2018-07-08T15:50:17.558Z,5.13
2018-07-08T15:52:44.728Z,83.47
2018-07-08T15:55:11.906Z,21.10
2018-07-08T15:57:39.048Z,129.47
2018-07-08T16:00:06.224Z,346.43
2018-07-08T16:02:33.403Z,98.33
2018-07-08T16:05:00.560Z,56.67
2018-07-08T16:07:27.688Z,1357.27
2018-07-08T16:09:54.812Z,1999.90
2018-07-08T16:12:21.976Z,104.63
2018-07-08T16:14:49.124Z,116.07
2018-07-08T16:17:16.268Z,44.07
2018-07-08T16:19:43.507Z,79.77
2018-07-08T16:22:10.617Z,546.07
2018-07-08T16:24:37.855Z,95.53
2018-07-08T16:27:05.291Z,209.47
2018-07-08T16:29:32.512Z,825.77
2018-07-08T16:31:59.701Z,462.90
2018-07-08T16:34:26.864Z,55.43
2018-07-08T16:36:53.977Z,820.20
2018-07-08T16:39:21.113Z,593.83
2018-07-08T16:41:48.276Z,524.10
2018-07-08T16:44:15.420Z,331.07
2018-07-08T16:46:42.577Z,144.53
2018-07-08T16:49:09.708Z,44.00
2018-07-08T16:51:36.827Z,734.57
2018-07-08T16:54:03.984Z,200.57
2018-07-08T16:56:31.133Z,109.53
2018-07-08T16:58:58.305Z,116.10
2018-07-08T17:01:25.439Z,167.33
2018-07-08T17:03:52.584Z,1999.90
2018-07-08T17:06:19.761Z,479.00
2018-07-08T17:08:46.936Z,304.73
2018-07-08T17:11:14.068Z,397.67
2018-07-08T17:13:41.221Z,655.93
2018-07-08T17:16:08.374Z,553.53
2018-07-08T17:18:35.524Z,803.13
2018-07-08T17:21:02.650Z,1999.90
2018-07-08T17:23:29.867Z,19.20
2018-07-08T17:25:56.962Z,500.30
2018-07-08T17:28:24.109Z,1199.43
2018-07-08T17:30:51.246Z,297.60
2018-07-08T17:33:18.506Z,676.93
2018-07-08T17:35:45.509Z,1833.97
2018-07-08T17:38:12.636Z,440.57
2018-07-08T17:40:39.772Z,865.53
2018-07-08T17:43:06.896Z,36.07
2018-07-08T17:45:34.041Z,268.23
2018-07-08T17:48:01.214Z,53.47
2018-07-08T17:50:28.340Z,1670.57
2018-07-08T17:52:55.483Z,92.77
2018-07-08T17:55:22.660Z,1423.93
2018-07-08T17:57:49.822Z,264.57
2018-07-08T18:00:16.974Z,403.63
2018-07-08T18:02:44.128Z,292.53
2018-07-08T18:05:11.264Z,106.07
2018-07-08T18:07:38.425Z,519.73
2018-07-08T18:10:05.569Z,484.07
2018-07-08T18:12:32.704Z,46.70
2018-07-08T18:14:59.840Z,1456.10
2018-07-08T18:17:27.026Z,1571.97
2018-07-08T18:19:54.164Z,367.00
2018-07-08T18:22:21.284Z,292.53
2018-07-08T18:24:49.224Z,271.53
2018-07-08T18:27:16.862Z,206.00
2018-07-08T18:29:43.981Z,451.43
2018-07-08T18:32:11.119Z,325.57
2018-07-08T18:34:38.622Z,153.80
2018-07-08T18:37:05.756Z,56.10
2018-07-08T18:39:32.896Z,256.80
2018-07-08T18:42:00.047Z,127.43
2018-07-08T18:44:27.388Z,199.77
2018-07-08T18:46:54.512Z,1334.67
2018-07-08T18:49:21.637Z,710.80
2018-07-08T18:51:48.796Z,1982.80
2018-07-08T18:54:15.912Z,1816.60
2018-07-08T18:56:43.751Z,1477.90
2018-07-08T18:59:10.908Z,1999.90
2018-07-08T19:01:38.031Z,1999.90
2018-07-08T19:04:05.197Z,523.47
2018-07-08T19:06:32.344Z,299.90
2018-07-08T19:08:59.515Z,54.43
2018-07-08T19:11:26.664Z,525.43
2018-07-08T19:13:53.811Z,913.33
2018-07-08T19:16:20.946Z,1794.77
2018-07-08T19:18:48.095Z,571.47
2018-07-08T19:21:15.242Z,665.70
2018-07-08T19:23:42.597Z,447.17
2018-07-08T19:26:09.720Z,794.07
2018-07-08T19:28:36.928Z,1278.07
2018-07-08T19:31:04.084Z,424.73
2018-07-08T19:33:31.224Z,1246.67
2018-07-08T19:35:58.367Z,1321.23
2018-07-08T19:38:25.516Z,1184.97
2018-07-08T19:40:52.779Z,1436.43
2018-07-08T19:43:19.913Z,1888.00
2018-07-08T19:45:47.088Z,1372.90
2018-07-08T19:48:14.240Z,1792.87
2018-07-08T19:50:41.356Z,1770.47
2018-07-08T19:53:09.084Z,1999.90
2018-07-08T19:55:36.221Z,1999.90
2018-07-08T19:58:03.376Z,1999.90
2018-07-08T20:00:30.529Z,1999.90
2018-07-08T20:02:58.024Z,1999.90
2018-07-08T20:05:25.308Z,1999.90
2018-07-08T20:07:52.959Z,1999.90
2018-07-08T20:10:20.038Z,1999.90
2018-07-08T20:12:47.181Z,1999.90
2018-07-08T20:15:14.382Z,1999.90
2018-07-08T20:17:41.544Z,1999.90
2018-07-08T20:20:09.616Z,1999.90
2018-07-08T20:22:36.768Z,1999.90
2018-07-08T20:25:03.929Z,1999.90
2018-07-08T20:27:31.093Z,1999.90
2018-07-08T20:29:58.234Z,1999.90
2018-07-08T20:32:25.821Z,1999.90
2018-07-08T20:34:52.934Z,1999.90
2018-07-08T20:37:20.049Z,1999.90
2018-07-08T20:39:47.181Z,1999.90
2018-07-08T20:42:14.347Z,1999.90
2018-07-08T20:44:41.474Z,1999.90
2018-07-08T20:47:08.589Z,1999.90
2018-07-08T20:49:35.716Z,1999.90
2018-07-08T20:52:02.864Z,1999.90
2018-07-08T20:54:30.017Z,1999.90
2018-07-08T20:56:57.180Z,1999.90
2018-07-08T20:59:24.648Z,1999.90
2018-07-08T21:01:51.774Z,1999.90
2018-07-08T21:04:19.841Z,1999.90
2018-07-08T21:06:46.993Z,1999.90
2018-07-08T21:09:14.208Z,1999.90
2018-07-08T21:11:41.348Z,1999.90
2018-07-08T21:14:08.488Z,1999.90
2018-07-08T21:16:35.671Z,1999.90
2018-07-08T21:19:03.808Z,1999.90
2018-07-08T21:21:30.988Z,1999.90
2018-07-08T21:23:58.112Z,1999.90
2018-07-08T21:26:25.280Z,1999.90
2018-07-08T21:28:52.448Z,1999.90
2018-07-08T21:31:19.590Z,1999.90
2018-07-08T21:33:46.799Z,1999.90
2018-07-08T21:36:13.921Z,1999.90
2018-07-08T21:38:41.511Z,1999.90
2018-07-08T21:41:08.633Z,1999.90
2018-07-08T21:43:36.081Z,1999.90
2018-07-08T21:46:03.218Z,1999.90
2018-07-08T21:48:30.360Z,1999.90
2018-07-08T21:50:57.508Z,1999.90
2018-07-08T21:53:24.640Z,1999.90
2018-07-08T21:55:51.764Z,1999.90
2018-07-08T21:58:18.903Z,1845.70
2018-07-08T22:00:57.698Z,1800.83
2018-07-08T22:03:24.832Z,1999.90
2018-07-08T22:05:52.006Z,1999.90
2018-07-08T22:08:19.176Z,1999.90
2018-07-08T22:10:46.297Z,1999.90
2018-07-08T22:13:13.445Z,1886.97
2018-07-08T22:15:40.594Z,1999.90
2018-07-08T22:18:07.720Z,1697.57
2018-07-08T22:20:34.869Z,1999.90
2018-07-08T22:23:02.035Z,1999.90
2018-07-08T22:25:29.173Z,1337.93
2018-07-08T22:27:56.341Z,1846.90
2018-07-08T22:30:23.487Z,1756.00
2018-07-08T22:32:50.659Z,1924.70
2018-07-08T22:35:17.788Z,1368.80
2018-07-08T22:37:44.921Z,1644.63
2018-07-08T22:40:12.114Z,1196.10
2018-07-08T22:42:39.276Z,1251.57
2018-07-08T22:45:06.432Z,951.00
2018-07-08T22:47:33.814Z,879.13
2018-07-08T22:50:00.961Z,1212.40
2018-07-08T22:52:28.120Z,879.03
2018-07-08T22:54:55.248Z,618.27
2018-07-08T22:57:22.400Z,913.30
2018-07-08T23:00:01.040Z,744.43
2018-07-08T23:02:37.057Z,739.40
2018-07-08T23:05:04.260Z,845.47
2018-07-08T23:07:31.396Z,299.50
2018-07-08T23:09:58.557Z,332.30
2018-07-08T23:12:25.757Z,344.23
2018-07-08T23:14:52.820Z,285.27
2018-07-08T23:17:19.968Z,211.20
2018-07-08T23:19:47.111Z,330.93
2018-07-08T23:22:18.496Z,162.10
2018-07-08T23:24:45.641Z,118.53
2018-07-08T23:27:12.777Z,184.50
2018-07-08T23:29:39.896Z,296.20
2018-07-08T23:32:07.089Z,207.20
2018-07-08T23:34:34.240Z,255.70
2018-07-08T23:37:01.393Z,58.67
2018-07-08T23:39:28.545Z,138.00
2018-07-08T23:41:55.761Z,136.90
2018-07-08T23:44:23.284Z,144.53
2018-07-08T23:46:50.467Z,34.60
2018-07-08T23:49:17.593Z,102.93
2018-07-08T23:51:44.700Z,68.57
2018-07-08T23:54:11.831Z,26.73
2018-07-08T23:56:38.968Z,64.03
2018-07-08T23:59:06.097Z,48.60
